createdAt,value
2022-07-28T00:00:17.886Z,0.80
2022-07-28T00:02:45.650Z,0.70
2022-07-28T00:05:13.382Z,0.90
2022-07-28T00:07:42.120Z,0.93
2022-07-28T00:10:10.271Z,0.88
2022-07-28T00:12:37.919Z,0.90
2022-07-28T00:15:06.540Z,0.63
2022-07-28T00:17:35.581Z,0.80
2022-07-28T00:20:03.332Z,1.02
2022-07-28T00:22:30.944Z,0.75
2022-07-28T00:24:58.630Z,0.82
2022-07-28T00:27:26.286Z,0.93
2022-07-28T00:29:53.903Z,0.95
2022-07-28T00:32:21.727Z,0.50
2022-07-28T00:34:53.467Z,1.33
2022-07-28T00:37:21.475Z,1.10
2022-07-28T00:39:49.074Z,0.85
2022-07-28T00:42:18.298Z,0.70
2022-07-28T00:44:45.925Z,0.80
2022-07-28T00:47:13.544Z,1.10
2022-07-28T00:49:41.227Z,0.90
2022-07-28T00:52:10.687Z,0.70
2022-07-28T00:54:38.365Z,0.80
2022-07-28T00:57:06.140Z,0.80
2022-07-28T00:59:34.113Z,0.82
2022-07-28T01:02:02.382Z,1.10
2022-07-28T01:04:30.346Z,0.80
2022-07-28T01:07:03.509Z,0.90
2022-07-28T01:09:43.020Z,1.00
2022-07-28T01:12:15.133Z,0.90
2022-07-28T01:14:45.922Z,1.05
2022-07-28T01:17:17.909Z,0.82
2022-07-28T01:19:49.543Z,0.93
2022-07-28T01:22:20.248Z,0.90
2022-07-28T01:24:55.969Z,0.70
2022-07-28T01:27:39.061Z,0.70
2022-07-28T01:30:08.532Z,0.82
2022-07-28T01:32:42.549Z,0.57
2022-07-28T01:35:13.106Z,1.10
2022-07-28T01:37:42.485Z,0.70
2022-07-28T01:40:11.984Z,1.33
2022-07-28T01:42:41.017Z,0.70
2022-07-28T01:45:09.500Z,0.70
2022-07-28T01:47:37.516Z,0.52
2022-07-28T01:50:09.354Z,0.70
2022-07-28T01:52:37.860Z,0.28
2022-07-28T01:55:06.289Z,0.70
2022-07-28T01:57:34.357Z,0.80
2022-07-28T02:00:02.932Z,0.70
2022-07-28T02:02:40.686Z,0.60
2022-07-28T02:05:10.927Z,0.68
2022-07-28T02:07:39.211Z,0.75
2022-07-28T02:10:08.077Z,0.95
2022-07-28T02:12:36.404Z,0.90
2022-07-28T02:15:04.411Z,0.73
2022-07-28T02:17:35.447Z,0.68
2022-07-28T02:20:05.070Z,0.60
2022-07-28T02:22:35.121Z,0.50
2022-07-28T02:25:03.048Z,0.70
2022-07-28T02:27:35.685Z,0.80
2022-07-28T02:30:04.885Z,0.50
2022-07-28T02:32:36.914Z,0.70
2022-07-28T02:35:09.473Z,1.35
2022-07-28T02:37:39.837Z,0.93
2022-07-28T02:40:08.904Z,0.80
2022-07-28T02:42:37.263Z,0.75
2022-07-28T02:45:06.033Z,0.40
2022-07-28T02:47:35.929Z,0.75
2022-07-28T02:50:03.801Z,0.82
2022-07-28T02:52:31.853Z,0.95
2022-07-28T02:55:01.398Z,0.52
2022-07-28T02:57:30.108Z,0.70
2022-07-28T02:59:58.240Z,0.90
2022-07-28T03:02:26.188Z,0.73
2022-07-28T03:05:01.764Z,0.68
2022-07-28T03:07:30.002Z,1.00
2022-07-28T03:09:57.969Z,0.70
2022-07-28T03:12:27.405Z,0.85
2022-07-28T03:14:55.326Z,0.68
2022-07-28T03:17:23.454Z,0.73
2022-07-28T03:19:51.092Z,0.50
2022-07-28T03:22:18.757Z,0.75
2022-07-28T03:24:48.315Z,0.60
2022-07-28T03:27:21.497Z,0.80
2022-07-28T03:29:53.737Z,0.50
2022-07-28T03:32:22.481Z,0.75
2022-07-28T03:34:50.170Z,0.82
2022-07-28T03:37:19.701Z,0.85
2022-07-28T03:39:48.750Z,0.70
2022-07-28T03:42:17.732Z,0.57
2022-07-28T03:44:46.660Z,0.80
2022-07-28T03:47:16.329Z,0.80
2022-07-28T03:49:46.609Z,0.95
2022-07-28T03:52:14.336Z,0.50
2022-07-28T03:54:41.921Z,0.57
2022-07-28T03:57:09.587Z,0.80
2022-07-28T03:59:37.264Z,0.70
2022-07-28T04:02:05.986Z,0.77
2022-07-28T04:04:34.982Z,0.77
2022-07-28T04:07:02.627Z,0.82
2022-07-28T04:09:30.299Z,0.80
2022-07-28T04:11:57.947Z,0.70
2022-07-28T04:14:25.911Z,0.90
2022-07-28T04:16:53.928Z,0.70
2022-07-28T04:19:21.592Z,1.00
2022-07-28T04:21:50.593Z,0.80
2022-07-28T04:24:18.429Z,0.70
2022-07-28T04:26:46.281Z,1.05
2022-07-28T04:29:13.940Z,0.60
2022-07-28T04:31:51.187Z,0.90
2022-07-28T04:34:18.807Z,1.02
2022-07-28T04:36:46.452Z,0.93
2022-07-28T04:39:16.219Z,0.90
2022-07-28T04:41:43.846Z,0.80
2022-07-28T04:44:12.237Z,0.73
2022-07-28T04:46:40.323Z,1.02
2022-07-28T04:49:08.235Z,0.60
2022-07-28T04:51:36.790Z,0.40
2022-07-28T04:54:04.480Z,0.80
2022-07-28T04:56:33.898Z,0.80
2022-07-28T04:59:01.608Z,0.57
2022-07-28T05:01:31.616Z,1.05
2022-07-28T05:03:59.340Z,0.90
2022-07-28T05:06:26.967Z,1.00
2022-07-28T05:08:54.614Z,0.70
2022-07-28T05:11:22.253Z,0.60
2022-07-28T05:13:51.282Z,0.82
2022-07-28T05:16:18.957Z,0.70
2022-07-28T05:18:46.573Z,0.65
2022-07-28T05:21:14.246Z,0.80
2022-07-28T05:23:47.354Z,0.52
2022-07-28T05:26:15.641Z,0.75
2022-07-28T05:28:43.297Z,0.65
2022-07-28T05:31:12.334Z,0.50
2022-07-28T05:33:40.033Z,0.55
2022-07-28T05:36:09.160Z,0.60
2022-07-28T05:38:36.833Z,1.00
2022-07-28T05:41:04.492Z,1.08
2022-07-28T05:43:32.110Z,0.80
2022-07-28T05:45:59.757Z,1.35
2022-07-28T05:48:28.772Z,1.75
2022-07-28T05:50:56.478Z,1.75
2022-07-28T05:53:24.170Z,1.45
2022-07-28T05:56:00.469Z,1.88
2022-07-28T05:58:29.647Z,2.47
2022-07-28T06:00:59.223Z,1.98
2022-07-28T06:03:26.942Z,2.58
2022-07-28T06:06:00.615Z,2.58
2022-07-28T06:08:43.025Z,2.30
2022-07-28T06:11:11.722Z,2.45
2022-07-28T06:13:40.314Z,2.17
2022-07-28T06:16:12.964Z,2.00
2022-07-28T06:18:40.861Z,2.72
2022-07-28T06:21:09.865Z,2.63
2022-07-28T06:23:37.512Z,2.20
2022-07-28T06:26:05.157Z,2.10
2022-07-28T06:28:33.427Z,2.25
2022-07-28T06:31:01.269Z,1.90
2022-07-28T06:33:28.893Z,1.80
2022-07-28T06:35:57.544Z,2.10
2022-07-28T06:38:26.505Z,1.83
2022-07-28T06:40:54.178Z,2.05
2022-07-28T06:43:21.780Z,1.70
2022-07-28T06:45:51.227Z,1.67
2022-07-28T06:48:20.075Z,1.70
2022-07-28T06:50:47.728Z,1.40
2022-07-28T06:53:15.370Z,1.70
2022-07-28T06:55:44.513Z,1.67
2022-07-28T06:58:17.720Z,1.60
2022-07-28T07:00:45.419Z,1.33
2022-07-28T07:03:13.117Z,1.30
2022-07-28T07:05:40.780Z,1.20
2022-07-28T07:08:08.425Z,0.88
2022-07-28T07:10:36.581Z,1.00
2022-07-28T07:13:05.581Z,1.23
2022-07-28T07:15:35.030Z,1.25
2022-07-28T07:18:02.898Z,1.00
2022-07-28T07:20:30.551Z,0.98
2022-07-28T07:22:58.164Z,0.98
2022-07-28T07:25:25.834Z,0.77
2022-07-28T07:27:53.474Z,1.10
2022-07-28T07:30:23.101Z,1.50
2022-07-28T07:32:50.801Z,1.25
2022-07-28T07:35:19.080Z,0.70
2022-07-28T07:37:46.729Z,0.55
2022-07-28T07:40:14.392Z,0.68
2022-07-28T07:42:42.070Z,1.85
2022-07-28T07:45:10.141Z,1.13
2022-07-28T07:47:39.244Z,1.02
2022-07-28T07:50:07.444Z,0.85
2022-07-28T07:52:35.092Z,1.08
2022-07-28T07:55:03.792Z,1.05
2022-07-28T07:57:31.424Z,0.85
2022-07-28T07:59:59.059Z,0.95
2022-07-28T08:02:26.789Z,1.35
2022-07-28T08:04:56.141Z,0.95
2022-07-28T08:07:23.802Z,0.57
2022-07-28T08:09:51.454Z,1.08
2022-07-28T08:12:25.001Z,1.02
2022-07-28T08:14:53.240Z,0.80
2022-07-28T08:17:25.204Z,0.40
2022-07-28T08:19:55.112Z,1.30
2022-07-28T08:22:22.803Z,0.88
2022-07-28T08:24:50.466Z,1.70
2022-07-28T08:27:18.157Z,0.68
2022-07-28T08:29:45.850Z,0.95
2022-07-28T08:32:13.519Z,0.90
2022-07-28T08:34:41.268Z,0.80
2022-07-28T08:37:10.301Z,0.60
2022-07-28T08:39:37.990Z,1.10
2022-07-28T08:42:06.662Z,1.23
2022-07-28T08:44:46.895Z,0.82
2022-07-28T08:47:14.645Z,0.43
2022-07-28T08:49:43.156Z,0.25
2022-07-28T08:52:13.210Z,0.98
2022-07-28T08:54:42.859Z,0.90
2022-07-28T08:57:11.173Z,1.00
2022-07-28T08:59:39.861Z,1.15
2022-07-28T09:02:10.447Z,1.00
2022-07-28T09:04:39.091Z,0.47
2022-07-28T09:07:06.984Z,1.15
2022-07-28T09:09:36.221Z,1.10
2022-07-28T09:12:05.434Z,0.90
2022-07-28T09:14:33.506Z,1.10
2022-07-28T09:17:01.807Z,0.30
2022-07-28T09:19:34.298Z,1.95
2022-07-28T09:22:03.771Z,1.08
2022-07-28T09:24:36.406Z,1.20
2022-07-28T09:27:06.786Z,0.90
2022-07-28T09:29:35.365Z,0.73
2022-07-28T09:32:04.064Z,0.75
2022-07-28T09:34:39.763Z,0.20
2022-07-28T09:37:07.489Z,0.90
2022-07-28T09:39:38.028Z,0.75
2022-07-28T09:42:05.855Z,0.90
2022-07-28T09:44:33.501Z,1.10
2022-07-28T09:47:01.370Z,1.00
2022-07-28T09:49:47.142Z,0.85
2022-07-28T09:52:14.893Z,0.77
2022-07-28T09:55:00.055Z,0.75
2022-07-28T09:57:28.026Z,1.17
2022-07-28T09:59:58.791Z,0.82
2022-07-28T10:02:27.791Z,0.63
2022-07-28T10:04:55.502Z,1.10
2022-07-28T10:07:23.175Z,0.60
2022-07-28T10:09:59.251Z,1.10
2022-07-28T10:12:27.654Z,0.70
2022-07-28T10:14:56.058Z,0.90
2022-07-28T10:17:24.583Z,0.52
2022-07-28T10:19:54.223Z,0.73
2022-07-28T10:22:23.325Z,0.50
2022-07-28T10:24:52.806Z,0.85
2022-07-28T10:27:22.972Z,1.00
2022-07-28T10:29:54.551Z,0.30
2022-07-28T10:32:22.200Z,0.60
2022-07-28T10:34:51.870Z,0.73
2022-07-28T10:37:21.277Z,1.23
2022-07-28T10:39:50.646Z,0.55
2022-07-28T10:42:18.626Z,0.60
2022-07-28T10:44:47.842Z,1.23
2022-07-28T10:47:18.443Z,0.80
2022-07-28T10:49:48.711Z,0.40
2022-07-28T10:52:45.819Z,1.15
2022-07-28T10:55:13.673Z,0.90
2022-07-28T10:57:44.705Z,0.90
2022-07-28T11:00:52.813Z,0.40
2022-07-28T11:03:38.233Z,0.70
2022-07-28T11:06:26.225Z,0.17
2022-07-28T11:08:54.130Z,0.95
2022-07-28T11:11:42.861Z,1.30
2022-07-28T11:14:32.149Z,1.30
2022-07-28T11:17:14.691Z,0.30
2022-07-28T11:22:41.288Z,1.00
2022-07-28T11:25:22.455Z,0.98
2022-07-28T11:28:06.274Z,0.52
2022-07-28T11:30:56.060Z,0.60
2022-07-28T11:33:25.051Z,0.45
2022-07-28T11:35:58.597Z,0.95
2022-07-28T11:38:26.770Z,0.50
2022-07-28T11:40:56.044Z,1.02
2022-07-28T11:43:37.306Z,0.98
2022-07-28T11:46:33.693Z,1.20
2022-07-28T11:49:21.799Z,0.22
2022-07-28T11:52:22.834Z,0.90
2022-07-28T11:54:53.213Z,0.77
2022-07-28T11:57:24.228Z,0.65
2022-07-28T11:59:53.861Z,1.20
2022-07-28T12:02:22.778Z,0.50
2022-07-28T12:04:57.514Z,0.52
2022-07-28T12:07:30.840Z,1.08
2022-07-28T12:09:59.954Z,0.98
2022-07-28T12:12:29.018Z,0.88
2022-07-28T12:14:57.598Z,0.90
2022-07-28T12:17:33.600Z,1.00
2022-07-28T12:20:06.245Z,0.90
2022-07-28T12:22:41.066Z,1.17
2022-07-28T12:25:13.988Z,1.02
2022-07-28T12:27:41.714Z,0.88
2022-07-28T12:30:14.316Z,0.40
2022-07-28T12:32:46.887Z,0.90
2022-07-28T12:35:14.564Z,0.57
2022-07-28T12:37:44.006Z,0.93
2022-07-28T12:40:14.246Z,1.10
2022-07-28T12:42:41.893Z,0.95
2022-07-28T12:45:10.332Z,1.25
2022-07-28T12:47:38.106Z,0.80
2022-07-28T12:50:14.212Z,1.05
2022-07-28T12:52:42.175Z,0.73
2022-07-28T12:55:24.648Z,2.08
2022-07-28T12:57:53.145Z,2.85
2022-07-28T13:00:22.230Z,3.38
2022-07-28T13:02:50.550Z,2.55
2022-07-28T13:05:28.353Z,3.33
2022-07-28T13:07:59.184Z,3.17
2022-07-28T13:10:31.368Z,1.23
2022-07-28T13:13:02.890Z,0.40
2022-07-28T13:15:30.735Z,1.10
2022-07-28T13:17:58.878Z,0.45
2022-07-28T13:20:26.962Z,0.50
2022-07-28T13:22:54.902Z,0.57
2022-07-28T13:25:22.758Z,1.20
2022-07-28T13:27:55.208Z,1.30
2022-07-28T13:30:23.564Z,0.93
2022-07-28T13:32:51.822Z,1.02
2022-07-28T13:35:20.964Z,1.40
2022-07-28T13:37:48.902Z,1.08
2022-07-28T13:40:16.556Z,1.10
2022-07-28T13:42:53.285Z,1.30
2022-07-28T13:45:26.174Z,1.17
2022-07-28T13:47:57.973Z,1.08
2022-07-28T13:50:25.853Z,1.40
2022-07-28T13:52:53.676Z,1.30
2022-07-28T13:55:22.945Z,0.98
2022-07-28T13:57:50.872Z,0.50
2022-07-28T14:00:22.598Z,0.93
2022-07-28T14:02:52.251Z,1.00
2022-07-28T14:05:20.257Z,1.10
2022-07-28T14:07:49.236Z,1.00
2022-07-28T14:10:17.246Z,0.82
2022-07-28T14:12:46.064Z,1.10
2022-07-28T14:15:14.486Z,1.00
2022-07-28T14:17:43.392Z,0.70
2022-07-28T14:20:14.931Z,1.20
2022-07-28T14:22:42.826Z,0.40
2022-07-28T14:25:11.022Z,0.95
2022-07-28T14:27:38.986Z,0.90
2022-07-28T14:30:07.388Z,1.00
2022-07-28T14:32:35.943Z,0.80
2022-07-28T14:35:03.648Z,0.80
2022-07-28T14:37:55.110Z,0.63
2022-07-28T14:40:20.332Z,1.48
2022-07-28T14:42:47.970Z,0.45
2022-07-28T14:45:15.609Z,0.57
2022-07-28T14:47:44.621Z,0.80
2022-07-28T14:50:13.204Z,0.90
2022-07-28T14:52:45.060Z,1.13
2022-07-28T14:55:13.115Z,1.02
2022-07-28T14:57:52.107Z,0.80
2022-07-28T15:00:22.988Z,0.98
2022-07-28T15:02:51.403Z,0.85
2022-07-28T15:05:19.499Z,1.15
2022-07-28T15:07:49.394Z,0.90
2022-07-28T15:10:17.248Z,0.60
2022-07-28T15:12:45.117Z,0.57
2022-07-28T15:15:13.818Z,0.88
2022-07-28T15:17:41.453Z,0.90
2022-07-28T15:20:10.525Z,1.10
2022-07-28T15:22:38.216Z,0.60
2022-07-28T15:25:07.935Z,0.60
2022-07-28T15:27:35.597Z,0.82
2022-07-28T15:30:03.513Z,1.00
2022-07-28T15:32:31.225Z,0.90
2022-07-28T15:34:59.397Z,0.93
2022-07-28T15:37:27.877Z,0.90
2022-07-28T15:39:55.597Z,0.88
2022-07-28T15:42:24.605Z,0.65
2022-07-28T15:44:52.753Z,1.08
2022-07-28T15:47:20.380Z,0.82
2022-07-28T15:49:48.064Z,0.93
2022-07-28T15:52:15.909Z,1.10
2022-07-28T15:54:43.632Z,1.23
2022-07-28T15:57:13.877Z,1.08
2022-07-28T15:59:49.705Z,1.13
2022-07-28T16:02:18.408Z,1.10
2022-07-28T16:04:53.739Z,0.80
2022-07-28T16:07:23.239Z,1.00
2022-07-28T16:09:51.393Z,1.10
2022-07-28T16:12:19.217Z,0.93
2022-07-28T16:14:48.216Z,0.50
2022-07-28T16:17:15.920Z,0.90
2022-07-28T16:19:49.479Z,0.38
2022-07-28T16:22:17.985Z,0.68
2022-07-28T16:24:45.818Z,1.00
2022-07-28T16:27:13.921Z,0.57
2022-07-28T16:29:41.532Z,1.10
2022-07-28T16:32:10.654Z,1.00
2022-07-28T16:34:38.346Z,0.82
2022-07-28T16:37:06.279Z,1.00
2022-07-28T16:39:34.129Z,0.68
2022-07-28T16:42:02.639Z,1.05
2022-07-28T16:44:30.421Z,1.05
2022-07-28T16:46:58.580Z,0.90
2022-07-28T16:49:27.770Z,0.88
2022-07-28T16:51:55.997Z,0.90
2022-07-28T16:54:23.705Z,1.10
2022-07-28T16:56:51.605Z,1.10
2022-07-28T16:59:19.234Z,1.00
2022-07-28T17:01:46.980Z,1.10
2022-07-28T17:04:15.469Z,1.20
2022-07-28T17:06:44.928Z,0.93
2022-07-28T17:09:12.572Z,0.90
2022-07-28T17:11:41.062Z,1.25
2022-07-28T17:14:08.781Z,1.02
2022-07-28T17:16:36.454Z,0.85
2022-07-28T17:19:04.252Z,0.82
2022-07-28T17:21:32.452Z,1.20
2022-07-28T17:24:01.491Z,0.77
2022-07-28T17:27:32.495Z,1.17
2022-07-28T17:29:16.959Z,0.55
2022-07-28T17:31:44.612Z,0.90
2022-07-28T17:34:12.517Z,1.15
2022-07-28T17:36:42.041Z,1.17
2022-07-28T17:39:11.270Z,1.02
2022-07-28T17:41:39.213Z,0.98
2022-07-28T17:44:06.881Z,1.10
2022-07-28T17:46:35.924Z,1.02
2022-07-28T17:49:05.140Z,1.02
2022-07-28T17:51:32.870Z,1.02
2022-07-28T17:54:00.531Z,0.80
2022-07-28T17:56:31.287Z,0.80
2022-07-28T17:58:59.037Z,0.85
2022-07-28T18:01:26.734Z,0.77
2022-07-28T18:03:58.626Z,1.25
2022-07-28T18:06:29.256Z,1.00
2022-07-28T18:08:56.984Z,1.00
2022-07-28T18:11:25.189Z,1.05
2022-07-28T18:14:04.325Z,0.95
2022-07-28T18:16:33.189Z,0.52
2022-07-28T18:19:01.013Z,0.95
2022-07-28T18:21:29.231Z,0.52
2022-07-28T18:23:56.867Z,0.70
2022-07-28T18:26:24.520Z,1.08
2022-07-28T18:28:52.149Z,1.00
2022-07-28T18:31:21.777Z,1.00
2022-07-28T18:33:49.578Z,0.80
2022-07-28T18:36:17.245Z,0.77
2022-07-28T18:38:44.882Z,0.90
2022-07-28T18:41:12.558Z,0.93
2022-07-28T18:43:40.301Z,1.30
2022-07-28T18:46:08.015Z,1.08
2022-07-28T18:48:37.999Z,1.00
2022-07-28T18:51:06.203Z,1.10
2022-07-28T18:53:33.890Z,0.95
2022-07-28T18:56:01.501Z,1.30
2022-07-28T18:58:29.693Z,1.02
2022-07-28T19:00:57.344Z,1.02
2022-07-28T19:03:24.941Z,1.15
2022-07-28T19:05:54.326Z,0.90
2022-07-28T19:08:22.451Z,1.15
2022-07-28T19:10:50.076Z,0.90
2022-07-28T19:13:17.727Z,0.90
2022-07-28T19:15:45.504Z,0.93
2022-07-28T19:18:13.202Z,1.65
2022-07-28T19:20:40.851Z,1.08
2022-07-28T19:23:09.866Z,1.10
2022-07-28T19:25:39.245Z,0.98
2022-07-28T19:28:07.415Z,0.82
2022-07-28T19:30:35.240Z,1.33
2022-07-28T19:33:03.305Z,1.23
2022-07-28T19:35:31.272Z,0.82
2022-07-28T19:38:00.082Z,0.90
2022-07-28T19:40:31.806Z,0.70
2022-07-28T19:42:59.904Z,0.90
2022-07-28T19:45:27.795Z,1.17
2022-07-28T19:47:55.669Z,0.95
2022-07-28T19:50:23.614Z,1.00
2022-07-28T19:52:51.281Z,1.40
2022-07-28T19:55:18.916Z,0.55
2022-07-28T19:57:48.804Z,1.45
2022-07-28T20:00:17.555Z,1.00
2022-07-28T20:02:45.880Z,1.00
2022-07-28T20:05:14.024Z,0.90
2022-07-28T20:07:42.291Z,0.98
2022-07-28T20:10:10.205Z,1.20
2022-07-28T20:12:38.185Z,1.17
2022-07-28T20:15:07.962Z,1.17
2022-07-28T20:17:39.835Z,1.02
2022-07-28T20:20:08.679Z,0.82
2022-07-28T20:22:36.356Z,0.77
2022-07-28T20:25:04.346Z,1.00
2022-07-28T20:27:32.310Z,1.02
2022-07-28T20:30:10.626Z,0.93
2022-07-28T20:32:38.305Z,1.00
2022-07-28T20:35:08.280Z,0.75
2022-07-28T20:37:37.626Z,0.82
2022-07-28T20:40:06.764Z,1.30
2022-07-28T20:42:34.412Z,0.95
2022-07-28T20:45:02.085Z,0.82
2022-07-28T20:47:33.584Z,0.88
2022-07-28T20:50:01.575Z,1.00
2022-07-28T20:52:30.197Z,1.13
2022-07-28T20:54:57.821Z,1.10
2022-07-28T20:57:25.465Z,1.30
2022-07-28T20:59:53.141Z,1.10
2022-07-28T21:02:20.915Z,0.82
2022-07-28T21:04:50.491Z,0.93
2022-07-28T21:08:00.275Z,0.90
2022-07-28T21:10:07.148Z,0.90
2022-07-28T21:12:36.509Z,0.75
2022-07-28T21:15:04.346Z,1.05
2022-07-28T21:17:31.941Z,0.98
2022-07-28T21:20:01.013Z,1.02
2022-07-28T21:22:28.650Z,1.00
2022-07-28T21:24:56.285Z,1.13
2022-07-28T21:27:24.204Z,1.15
2022-07-28T21:32:18.405Z,1.20
2022-07-28T21:34:46.029Z,0.70
2022-07-28T21:37:15.034Z,0.65
2022-07-28T21:39:42.770Z,0.98
2022-07-28T21:42:10.447Z,1.10
2022-07-28T21:44:38.342Z,0.98
2022-07-28T21:47:06.374Z,0.90
2022-07-28T21:49:34.025Z,1.15
2022-07-28T21:52:01.684Z,1.00
2022-07-28T21:54:30.755Z,0.90
2022-07-28T21:56:58.782Z,0.82
2022-07-28T21:59:26.449Z,0.82
2022-07-28T22:01:54.115Z,0.80
2022-07-28T22:04:22.193Z,0.70
2022-07-28T22:06:50.238Z,1.10
2022-07-28T22:09:17.909Z,1.20
2022-07-28T22:11:47.297Z,0.85
2022-07-28T22:14:15.150Z,0.80
2022-07-28T22:16:43.058Z,0.80
2022-07-28T22:19:12.094Z,0.90
2022-07-28T22:21:39.722Z,0.90
2022-07-28T22:24:08.050Z,0.90
2022-07-28T22:26:35.712Z,1.10
2022-07-28T22:29:04.765Z,0.85
2022-07-28T22:31:32.421Z,0.88
2022-07-28T22:34:00.103Z,0.90
2022-07-28T22:36:27.777Z,0.80
2022-07-28T22:38:55.512Z,1.00
2022-07-28T22:41:23.197Z,0.77
2022-07-28T22:43:50.837Z,0.85
2022-07-28T22:46:19.834Z,0.80
2022-07-28T22:48:47.541Z,0.90
2022-07-28T22:51:16.700Z,1.10
2022-07-28T22:53:44.308Z,0.98
2022-07-28T22:56:12.081Z,0.70
2022-07-28T22:58:40.059Z,0.80
2022-07-28T23:01:07.824Z,0.98
2022-07-28T23:03:38.285Z,0.98
2022-07-28T23:06:06.100Z,1.17
2022-07-28T23:08:33.758Z,0.73
2022-07-28T23:11:01.478Z,0.75
2022-07-28T23:13:29.141Z,1.00
2022-07-28T23:15:56.833Z,1.08
2022-07-28T23:18:24.488Z,1.05
2022-07-28T23:20:53.544Z,1.00
2022-07-28T23:23:21.245Z,1.08
2022-07-28T23:25:48.970Z,1.00
2022-07-28T23:28:16.614Z,0.93
2022-07-28T23:30:45.493Z,1.33
2022-07-28T23:33:20.677Z,1.15
2022-07-28T23:36:02.183Z,1.30
2022-07-28T23:38:29.852Z,1.10
2022-07-28T23:40:57.509Z,1.15
2022-07-28T23:43:25.137Z,0.60
2022-07-28T23:45:52.780Z,1.23
2022-07-28T23:48:20.382Z,0.90
2022-07-28T23:50:48.055Z,1.20
2022-07-28T23:53:17.075Z,1.00
2022-07-28T23:55:45.149Z,1.20
2022-07-28T23:58:12.841Z,1.05
